Portada
METAR-TAF:

METAR-TAF

Aeropuertos :

Aeropuerto MidAmerica

Belleville, Illinois, Estados Unidos

latitud: 38-33N, longitud: 089-51W, altitud: 140 m

Observación

El informe se hizo hace 7 minutos, a las 18:55 UTC
Viento 11 kt del sur
Temperatura 33°C
Humedad 44%
Presión 1022 hPa
Visibilidad: 16.1 km
Cielo despejado

METAR: KBLV 191855Z AUTO 19011KT 10SM CLR 33/19 A3017 RMK AO2 SLP215 T03250193

Hora: 14:02 (19:02 UTC)

Pronóstico

El informe se hizo hace 3 horas y 2 minutos, a las 16:00 UTC
Pronóstico válido del 19 a las 16 UTC al 20 a las 22 UTC
Viento 9 kt del sur-sureste
Visibilidad 10 km o más
Nubes dispersas a una altura de 5000 ft

TAF: KBLV 191600Z 1916/2022 16009KT 9999 SCT050 QNH3015INS TX32/1920Z TN20/2011Z

Observaciones y pronósticos meteorológicos de más de 4000 aeropuertos (mensajes METAR y TAF).

Los puntos amarillos y rojos representan las estaciones disponibles.

Ponga el ratón en el punto deseado para ver el nombre de la estación.

Haga clic para ver las observaciones y los pronósticos meteorológicos.

Para cambiar el mapa : haga clic en los botones verdes con una cruz de color negro para hacer un zoom, en el botón verde con un guión para alejar o en las flechas verdes para mapas adyacentes.


METAR-TAF: